createdAt,value
2022-12-25T00:01:42.116Z,99835.75
2022-12-25T00:05:09.637Z,99847.03
2022-12-25T00:08:33.802Z,99849.69
2022-12-25T00:12:00.896Z,99853.16
2022-12-25T00:15:24.900Z,99851.41
2022-12-25T00:18:49.968Z,99860.91
2022-12-25T00:22:15.412Z,99862.69
2022-12-25T00:25:42.410Z,99865.22
2022-12-25T00:29:06.189Z,99860.88
2022-12-25T00:32:30.646Z,99877.34
2022-12-25T00:36:01.499Z,99888.59
2022-12-25T00:39:27.432Z,99895.66
2022-12-25T00:42:51.364Z,99904.38
2022-12-25T00:46:15.804Z,99901.72
2022-12-25T00:49:39.854Z,99903.44
2022-12-25T00:53:03.786Z,99920.72
2022-12-25T00:56:29.304Z,99927.66
2022-12-25T00:59:53.867Z,99931.09
2022-12-25T01:03:19.407Z,99931.00
2022-12-25T01:06:43.771Z,99926.59
2022-12-25T01:10:23.753Z,99923.16
2022-12-25T01:13:49.305Z,99917.94
2022-12-25T01:17:13.120Z,99912.72
2022-12-25T01:20:37.328Z,99927.53
2022-12-25T01:24:00.801Z,99936.25
2022-12-25T01:27:25.242Z,99934.50
2022-12-25T01:30:51.421Z,99944.94
2022-12-25T01:34:15.740Z,99944.94
2022-12-25T01:37:39.940Z,99947.56
2022-12-25T01:41:04.120Z,99945.81
2022-12-25T01:45:19.521Z,99940.50
2022-12-25T01:48:45.085Z,99941.22
2022-12-25T01:52:11.311Z,99938.69
2022-12-25T01:55:37.560Z,99933.53
2022-12-25T01:59:02.813Z,99937.00
2022-12-25T02:02:28.578Z,99932.63
2022-12-25T02:05:54.960Z,99937.84
2022-12-25T02:09:20.309Z,99933.53
2022-12-25T02:12:48.744Z,99934.38
2022-12-25T02:16:21.312Z,99937.84
2022-12-25T02:20:12.098Z,99943.91
2022-12-25T02:24:08.925Z,99940.44
2022-12-25T02:28:10.278Z,99939.59
2022-12-25T02:31:41.331Z,99937.78
2022-12-25T02:35:11.943Z,99940.31
2022-12-25T02:39:02.114Z,99942.88
2022-12-25T02:42:48.496Z,99943.66
2022-12-25T02:46:35.241Z,99951.47
2022-12-25T02:50:19.287Z,99947.13
2022-12-25T02:54:10.280Z,99947.13
2022-12-25T02:57:55.794Z,99947.09
2022-12-25T03:01:56.962Z,99949.63
2022-12-25T03:05:44.272Z,99949.69
2022-12-25T03:09:29.360Z,99942.72
2022-12-25T03:12:58.521Z,99944.41
2022-12-25T03:16:41.603Z,99947.88
2022-12-25T03:20:25.934Z,99958.31
2022-12-25T03:24:15.651Z,99953.94
2022-12-25T03:27:43.741Z,99959.94
2022-12-25T03:31:17.895Z,99959.00
2022-12-25T03:35:08.080Z,99952.91
2022-12-25T03:39:05.353Z,99952.91
2022-12-25T03:42:58.246Z,99965.09
2022-12-25T03:46:50.945Z,99966.81
2022-12-25T03:50:38.522Z,99966.66
2022-12-25T03:54:23.394Z,99977.81
2022-12-25T03:58:04.546Z,99982.06
2022-12-25T04:01:46.022Z,99975.81
2022-12-25T04:05:26.974Z,99980.91
2022-12-25T04:09:10.242Z,99977.44
2022-12-25T04:12:51.472Z,99972.28
2022-12-25T04:16:33.250Z,99973.88
2022-12-25T04:20:14.398Z,99976.41
2022-12-25T04:23:55.568Z,99980.72
2022-12-25T04:27:37.681Z,99978.91
2022-12-25T04:31:19.423Z,99980.47
2022-12-25T04:35:02.181Z,99988.13
2022-12-25T04:38:26.366Z,99987.22
2022-12-25T04:41:50.209Z,100000.16
2022-12-25T04:45:15.883Z,100000.88
2022-12-25T04:48:39.981Z,100007.69
2022-12-25T04:52:04.230Z,100007.53
2022-12-25T04:55:28.284Z,99998.69
2022-12-25T04:58:52.681Z,99983.78
2022-12-25T05:02:20.680Z,99975.94
2022-12-25T05:05:44.707Z,99965.56
2022-12-25T05:09:08.909Z,99985.50
2022-12-25T05:12:32.986Z,99994.19
2022-12-25T05:15:56.900Z,100004.66
2022-12-25T05:19:22.515Z,100018.53
2022-12-25T05:22:46.306Z,100014.13
2022-12-25T05:26:11.587Z,100012.34
2022-12-25T05:29:35.449Z,100015.78
2022-12-25T05:32:59.353Z,100022.75
2022-12-25T05:36:24.806Z,100019.28
2022-12-25T05:39:49.078Z,100028.84
2022-12-25T05:43:12.942Z,100026.22
2022-12-25T05:46:37.090Z,100036.69
2022-12-25T05:50:00.922Z,100043.59
2022-12-25T05:53:26.504Z,100048.81
2022-12-25T05:56:50.485Z,100048.03
2022-12-25T06:00:17.993Z,100053.28
2022-12-25T06:03:41.869Z,100067.19
2022-12-25T06:07:06.153Z,100064.63
2022-12-25T06:10:31.319Z,100077.69
2022-12-25T06:13:55.956Z,100080.38
2022-12-25T06:17:19.938Z,100078.63
2022-12-25T06:20:43.893Z,100091.69
2022-12-25T06:24:08.055Z,100105.53
2022-12-25T06:27:33.502Z,100102.97
2022-12-25T06:30:57.318Z,100111.66
2022-12-25T06:34:21.816Z,100116.03
2022-12-25T06:37:45.743Z,100128.16
2022-12-25T06:41:11.610Z,100131.63
2022-12-25T06:44:36.868Z,100142.00
2022-12-25T06:48:01.154Z,100146.38
2022-12-25T06:51:26.646Z,100145.47
2022-12-25T06:54:50.757Z,100149.81
2022-12-25T06:58:14.333Z,100154.19
2022-12-25T07:01:46.669Z,100160.25
2022-12-25T07:05:10.397Z,100161.97
2022-12-25T07:08:34.395Z,100168.97
2022-12-25T07:12:05.255Z,100175.03
2022-12-25T07:15:29.449Z,100181.97
2022-12-25T07:18:55.093Z,100188.03
2022-12-25T07:22:19.155Z,100188.84
2022-12-25T07:25:42.997Z,100190.53
2022-12-25T07:29:07.193Z,100186.16
2022-12-25T07:32:31.962Z,100198.31
2022-12-25T07:35:58.429Z,100212.25
2022-12-25T07:39:22.349Z,100216.59
2022-12-25T07:42:46.837Z,100222.59
2022-12-25T07:46:11.618Z,100228.72
2022-12-25T07:49:37.261Z,100229.53
2022-12-25T07:53:02.481Z,100232.03
2022-12-25T07:56:26.372Z,100236.28
2022-12-25T07:59:50.145Z,100234.47
2022-12-25T08:03:16.214Z,100243.94
2022-12-25T08:06:40.411Z,100243.09
2022-12-25T08:10:07.017Z,100249.91
2022-12-25T08:13:32.621Z,100247.16
2022-12-25T08:16:56.948Z,100254.06
2022-12-25T08:20:21.016Z,100257.47
2022-12-25T08:23:47.099Z,100259.19
2022-12-25T08:27:12.287Z,100266.03
2022-12-25T08:30:36.347Z,100273.72
2022-12-25T08:34:00.909Z,100280.53
2022-12-25T08:37:24.849Z,100288.16
2022-12-25T08:40:48.558Z,100282.75
2022-12-25T08:44:14.350Z,100285.22
2022-12-25T08:47:38.057Z,100285.19
2022-12-25T08:51:03.198Z,100289.38
2022-12-25T08:54:31.252Z,100293.63
2022-12-25T08:57:57.962Z,100290.91
2022-12-25T09:01:23.285Z,100291.72
2022-12-25T09:04:47.673Z,100301.25
2022-12-25T09:08:11.748Z,100302.03
2022-12-25T09:11:35.612Z,100307.28
2022-12-25T09:14:59.400Z,100314.97
2022-12-25T09:18:25.454Z,100314.16
2022-12-25T09:21:49.250Z,100328.16
2022-12-25T09:25:13.582Z,100312.44
2022-12-25T09:28:37.506Z,100324.69
2022-12-25T09:32:01.483Z,100315.00
2022-12-25T09:35:29.331Z,100325.44
2022-12-25T09:38:54.061Z,100323.59
2022-12-25T09:42:22.108Z,100320.84
2022-12-25T09:45:46.926Z,100331.16
2022-12-25T09:49:19.959Z,100311.00
2022-12-25T09:52:50.545Z,100314.41
2022-12-25T09:56:26.335Z,100315.13
2022-12-25T09:59:50.433Z,100310.50
2022-12-25T10:03:43.915Z,100312.16
2022-12-25T10:07:15.106Z,100307.50
2022-12-25T10:10:51.038Z,100305.66
2022-12-25T10:14:27.321Z,100305.31
2022-12-25T10:18:09.706Z,100301.66
2022-12-25T10:21:34.128Z,100303.38
2022-12-25T10:25:00.972Z,100312.03
2022-12-25T10:28:32.027Z,100311.13
2022-12-25T10:31:57.222Z,100317.19
2022-12-25T10:35:24.614Z,100314.63
2022-12-25T10:38:49.086Z,100314.44
2022-12-25T10:42:29.863Z,100320.97
2022-12-25T10:45:55.324Z,100323.28
2022-12-25T10:49:22.532Z,100325.03
2022-12-25T10:52:57.248Z,100324.31
2022-12-25T10:56:21.412Z,100323.56
2022-12-25T10:59:46.647Z,100329.09
2022-12-25T11:03:24.853Z,100320.63
2022-12-25T11:06:59.063Z,100319.81
2022-12-25T11:10:26.545Z,100312.72
2022-12-25T11:13:54.264Z,100316.97
2022-12-25T11:17:23.146Z,100323.06
2022-12-25T11:20:52.034Z,100320.38
2022-12-25T11:24:21.505Z,100309.91
2022-12-25T11:27:50.287Z,100304.72
2022-12-25T11:31:19.508Z,100309.00
2022-12-25T11:34:46.753Z,100312.41
2022-12-25T11:38:12.233Z,100310.44
2022-12-25T11:41:41.774Z,100317.13
2022-12-25T11:45:10.442Z,100309.00
2022-12-25T11:48:42.364Z,100304.47
2022-12-25T11:52:13.397Z,100309.66
2022-12-25T11:55:42.652Z,100299.94
2022-12-25T11:59:17.914Z,100306.75
2022-12-25T12:02:47.510Z,100312.81
2022-12-25T12:06:19.647Z,100315.16
2022-12-25T12:09:52.474Z,100315.88
2022-12-25T12:13:34.502Z,100317.50
2022-12-25T12:17:02.048Z,100314.78
2022-12-25T12:20:32.360Z,100313.72
2022-12-25T12:24:02.040Z,100309.91
2022-12-25T12:27:31.331Z,100316.16
2022-12-25T12:31:02.415Z,100315.94
2022-12-25T12:34:29.866Z,100324.72
2022-12-25T12:37:57.421Z,100328.34
2022-12-25T12:41:23.352Z,100319.06
2022-12-25T12:44:47.852Z,100317.50
2022-12-25T12:48:30.104Z,100312.44
2022-12-25T12:52:05.864Z,100316.00
2022-12-25T12:55:31.148Z,100316.19
2022-12-25T12:58:54.992Z,100319.00
2022-12-25T13:03:04.367Z,100316.59
2022-12-25T13:06:36.149Z,100321.97
2022-12-25T13:10:10.665Z,100316.00
2022-12-25T13:13:38.816Z,100312.69
2022-12-25T13:17:03.198Z,100313.66
2022-12-25T13:20:40.020Z,100313.78
2022-12-25T13:24:10.372Z,100321.25
2022-12-25T13:27:35.377Z,100331.59
2022-12-25T13:31:15.896Z,100337.16
2022-12-25T13:34:41.862Z,100342.34
2022-12-25T13:38:13.852Z,100343.13
2022-12-25T13:42:01.605Z,100353.41
2022-12-25T13:45:28.976Z,100353.41
2022-12-25T13:49:01.295Z,100357.78
2022-12-25T13:52:30.141Z,100355.34
2022-12-25T13:55:56.129Z,100346.00
2022-12-25T13:59:23.535Z,100352.28
2022-12-25T14:02:51.565Z,100361.16
2022-12-25T14:06:21.476Z,100354.28
2022-12-25T14:09:45.618Z,100358.78
2022-12-25T14:13:14.411Z,100359.88
2022-12-25T14:16:43.736Z,100360.06
2022-12-25T14:20:09.460Z,100358.47
2022-12-25T14:23:42.572Z,100351.66
2022-12-25T14:27:09.192Z,100362.25
2022-12-25T14:30:40.211Z,100369.22
2022-12-25T14:34:12.611Z,100364.75
2022-12-25T14:37:38.529Z,100352.50
2022-12-25T14:41:03.725Z,100364.03
2022-12-25T14:44:34.022Z,100369.22
2022-12-25T14:48:00.322Z,100369.94
2022-12-25T14:51:25.597Z,100373.41
2022-12-25T14:54:52.513Z,100375.09
2022-12-25T14:58:22.238Z,100379.50
2022-12-25T15:01:52.251Z,100384.00
2022-12-25T15:05:28.202Z,100379.72
2022-12-25T15:09:04.012Z,100383.25
2022-12-25T15:12:27.827Z,100378.09
2022-12-25T15:16:00.178Z,100378.22
2022-12-25T15:19:30.412Z,100376.56
2022-12-25T15:23:18.447Z,100387.16
2022-12-25T15:26:43.088Z,100384.78
2022-12-25T15:30:10.407Z,100383.97
2022-12-25T15:33:37.008Z,100391.06
2022-12-25T15:37:04.595Z,100385.09
2022-12-25T15:40:28.465Z,100387.06
2022-12-25T15:43:54.562Z,100390.88
2022-12-25T15:47:20.315Z,100396.22
2022-12-25T15:50:44.448Z,100397.25
2022-12-25T15:54:10.409Z,100379.94
2022-12-25T15:57:35.360Z,100385.22
2022-12-25T16:01:00.680Z,100393.03
2022-12-25T16:04:26.055Z,100398.31
2022-12-25T16:07:50.619Z,100396.56
2022-12-25T16:11:14.916Z,100400.19
2022-12-25T16:14:39.135Z,100391.72
2022-12-25T16:18:04.769Z,100398.97
2022-12-25T16:21:30.970Z,100396.53
2022-12-25T16:24:55.398Z,100399.25
2022-12-25T16:28:19.173Z,100393.28
2022-12-25T16:31:43.493Z,100392.69
2022-12-25T16:35:10.025Z,100403.56
2022-12-25T16:38:34.511Z,100398.84
2022-12-25T16:41:58.158Z,100399.28
2022-12-25T16:45:22.071Z,100395.50
2022-12-25T16:48:45.984Z,100380.41
2022-12-25T16:52:11.692Z,100382.66
2022-12-25T16:55:37.134Z,100368.19
2022-12-25T16:59:01.259Z,100376.19
2022-12-25T17:02:25.359Z,100376.41
2022-12-25T17:05:49.471Z,100379.28
2022-12-25T17:09:14.432Z,100370.06
2022-12-25T17:12:38.633Z,100359.72
2022-12-25T17:16:02.562Z,100362.41
2022-12-25T17:19:27.341Z,100365.09
2022-12-25T17:22:51.521Z,100364.28
2022-12-25T17:26:17.362Z,100365.38
2022-12-25T17:29:41.204Z,100358.50
2022-12-25T17:33:05.369Z,100363.47
2022-12-25T17:36:31.980Z,100355.56
2022-12-25T17:39:56.199Z,100346.88
2022-12-25T17:43:21.302Z,100339.72
2022-12-25T17:46:48.024Z,100337.00
2022-12-25T17:50:11.673Z,100326.72
2022-12-25T17:53:41.397Z,100325.03
2022-12-25T17:57:06.509Z,100331.00
2022-12-25T18:00:32.028Z,100339.59
2022-12-25T18:03:56.954Z,100348.19
2022-12-25T18:07:21.096Z,100359.47
2022-12-25T18:10:45.993Z,100350.66
2022-12-25T18:14:13.182Z,100347.13
2022-12-25T18:17:39.675Z,100354.13
2022-12-25T18:21:04.095Z,100357.75
2022-12-25T18:24:27.804Z,100363.03
2022-12-25T18:27:52.543Z,100356.22
2022-12-25T18:31:18.354Z,100351.03
2022-12-25T18:34:43.635Z,100356.25
2022-12-25T18:38:09.507Z,100352.94
2022-12-25T18:41:53.292Z,100346.97
2022-12-25T18:45:17.877Z,100348.72
2022-12-25T18:48:44.243Z,100344.47
2022-12-25T18:52:49.554Z,100340.13
2022-12-25T18:55:53.358Z,100329.81
2022-12-25T18:59:17.154Z,100316.91
2022-12-25T19:02:41.282Z,100306.56
2022-12-25T19:06:05.095Z,100306.72
2022-12-25T19:09:31.579Z,100313.03
2022-12-25T19:12:55.341Z,100314.84
2022-12-25T19:16:20.038Z,100311.19
2022-12-25T19:19:44.343Z,100307.94
2022-12-25T19:23:08.481Z,100298.69
2022-12-25T19:26:33.665Z,100314.75
2022-12-25T19:29:58.444Z,100318.47
2022-12-25T19:33:23.041Z,100312.56
2022-12-25T19:36:48.551Z,100310.25
2022-12-25T19:40:15.832Z,100308.75
2022-12-25T19:43:43.301Z,100301.03
2022-12-25T19:47:07.262Z,100291.81
2022-12-25T19:50:33.817Z,100286.88
2022-12-25T19:53:58.083Z,100295.69
2022-12-25T19:57:22.550Z,100292.28
2022-12-25T20:00:58.791Z,100293.19
2022-12-25T20:04:23.007Z,100291.41
2022-12-25T20:07:48.191Z,100293.09
2022-12-25T20:11:12.363Z,100285.34
2022-12-25T20:14:36.189Z,100272.03
2022-12-25T20:18:03.201Z,100266.59
2022-12-25T20:21:30.184Z,100269.25
2022-12-25T20:24:54.376Z,100257.09
2022-12-25T20:28:18.210Z,100244.16
2022-12-25T20:31:42.290Z,100253.31
2022-12-25T20:35:08.637Z,100255.81
2022-12-25T20:38:33.224Z,100254.16
2022-12-25T20:41:59.947Z,100253.44
2022-12-25T20:45:24.199Z,100242.44
2022-12-25T20:48:47.713Z,100233.47
2022-12-25T20:52:13.132Z,100231.31
2022-12-25T20:55:36.893Z,100231.94
2022-12-25T20:59:02.069Z,100237.00
2022-12-25T21:02:35.949Z,100236.72
2022-12-25T21:06:01.331Z,100224.16
2022-12-25T21:09:26.809Z,100204.91
2022-12-25T21:12:50.915Z,100198.03
2022-12-25T21:16:16.427Z,100202.25
2022-12-25T21:19:40.525Z,100203.13
2022-12-25T21:23:04.716Z,100208.31
2022-12-25T21:26:33.684Z,100200.22
2022-12-25T21:29:57.333Z,100204.19
2022-12-25T21:33:38.668Z,100201.50
2022-12-25T21:37:02.020Z,100188.78
2022-12-25T21:40:26.168Z,100194.63
2022-12-25T21:43:51.568Z,100185.91
2022-12-25T21:47:15.819Z,100183.50
2022-12-25T21:50:56.633Z,100180.94
2022-12-25T21:54:21.949Z,100179.38
2022-12-25T21:57:45.699Z,100177.47
2022-12-25T22:01:12.244Z,100171.16
2022-12-25T22:04:36.074Z,100158.13
2022-12-25T22:07:59.345Z,100149.41
2022-12-25T22:11:40.901Z,100148.50
2022-12-25T22:15:06.976Z,100146.78
2022-12-25T22:18:49.584Z,100156.31
2022-12-25T22:22:13.738Z,100146.63
2022-12-25T22:25:38.095Z,100146.69
2022-12-25T22:29:02.531Z,100147.50
2022-12-25T22:32:26.516Z,100130.16
2022-12-25T22:35:52.057Z,100129.28
2022-12-25T22:39:16.177Z,100117.72
2022-12-25T22:42:40.365Z,100114.09
2022-12-25T22:46:04.406Z,100101.69
2022-12-25T22:49:28.850Z,100102.22
2022-12-25T22:52:54.013Z,100090.47
2022-12-25T22:56:18.205Z,100077.25
2022-12-25T22:59:43.785Z,100075.31
2022-12-25T23:03:07.899Z,100065.84
2022-12-25T23:06:31.673Z,100066.00
2022-12-25T23:09:57.290Z,100064.38
2022-12-25T23:13:38.284Z,100050.94
2022-12-25T23:17:02.367Z,100054.41
2022-12-25T23:20:43.733Z,100049.06
2022-12-25T23:24:27.472Z,100033.25
2022-12-25T23:27:52.725Z,100047.19
2022-12-25T23:31:15.814Z,100075.97
2022-12-25T23:34:42.243Z,100071.66
2022-12-25T23:38:05.922Z,100067.34
2022-12-25T23:41:29.670Z,100069.09
2022-12-25T23:44:55.239Z,100066.56
2022-12-25T23:48:19.047Z,100043.88
2022-12-25T23:51:45.819Z,100041.00
2022-12-25T23:55:10.151Z,100035.75
2022-12-25T23:58:36.463Z,100029.53
